Time;durP1;ratioP1;P1;durP2;ratioP2;P2;SDS_P1;SDS_P2;PMS_P1;PMS_P2;Temp;Humidity;BMP_temperature;BMP_pressure;BME280_temperature;BME280_humidity;BME280_pressure;Samples;Min_cycle;Max_cycle;Signal;HPM_P1;HPM_P2
2022/09/21 18:13:51;;;;;;;5.20;2.60;;;;;;;9.88;87.41;101003.50;84386;1336;544652;-72
2022/09/21 18:16:11;;;;;;;5.40;2.70;;;;;;;9.89;87.53;101002.96;86724;1313;22879;-70
2022/09/21 18:18:20;;;;;;;;;;;;;;;9.91;87.64;101004.84;86722;1313;22473;-70
2022/09/21 18:20:38;;;;;;;4.70;2.20;;;;;;;9.92;87.76;101006.89;86685;1313;22473;-72
2022/09/21 18:22:54;;;;;;;3.80;2.80;;;;;;;9.95;87.75;101005.77;86872;1310;24286;-68
2022/09/21 18:25:08;;;;;;;3.40;2.40;;;;;;;9.99;87.81;101012.43;86825;1305;25269;-68
2022/09/21 18:27:19;;;;;;;4.30;2.40;;;;;;;10.04;87.82;101015.12;86669;1310;261983;-71
2022/09/21 18:29:33;;;;;;;5.40;2.20;;;;;;;10.09;87.80;101018.48;86877;1294;22544;-70
2022/09/21 18:32:10;;;;;;;2.60;2.20;;;;;;;10.13;87.62;101020.63;86850;1295;22718;-71
2022/09/21 18:35:17;;;;;;;3.00;2.40;;;;;;;10.18;87.72;101020.35;86826;1312;22432;-69
2022/09/21 18:37:35;;;;;;;2.30;2.10;;;;;;;10.22;87.71;101023.89;86617;1307;22461;-71
2022/09/21 18:39:54;;;;;;;4.90;2.80;;;;;;;10.26;87.76;101027.65;86898;1300;22462;-68
2022/09/21 18:42:28;;;;;;;3.20;2.60;;;;;;;10.30;87.63;101027.38;86879;1291;22630;-70
2022/09/21 18:44:45;;;;;;;5.10;2.10;;;;;;;10.37;87.76;101027.38;86865;1307;22839;-68
2022/09/21 18:47:05;;;;;;;4.40;3.10;;;;;;;10.43;87.72;101025.63;86911;1310;22474;-71
2022/09/21 18:49:22;;;;;;;4.50;2.40;;;;;;;10.46;87.30;101027.29;86872;1296;23727;-68
2022/09/21 18:51:40;;;;;;;4.40;2.90;;;;;;;10.49;87.52;101027.21;86823;1313;23692;-71
2022/09/21 18:53:54;;;;;;;2.50;2.20;;;;;;;10.55;87.36;101027.41;87356;1296;22486;-68
2022/09/21 18:56:46;;;;;;;3.80;2.70;;;;;;;10.57;87.07;101027.17;87359;1275;24404;-70
2022/09/21 18:59:14;;;;;;;3.50;2.90;;;;;;;10.59;87.20;101023.46;87240;1303;22459;-71
2022/09/21 19:01:28;;;;;;;7.50;2.50;;;;;;;10.59;87.13;101023.45;87223;1291;25380;-70
2022/09/21 19:03:39;;;;;;;3.50;3.00;;;;;;;10.58;87.01;101024.38;87228;1284;25364;-68
2022/09/21 19:05:57;;;;;;;4.60;2.80;;;;;;;10.56;87.01;101023.17;87240;1275;22500;-68
2022/09/21 19:08:10;;;;;;;3.20;2.90;;;;;;;10.56;86.92;101023.20;87345;1284;22491;-70
2022/09/21 19:10:22;;;;;;;3.50;3.10;;;;;;;10.56;86.89;101027.36;87380;1297;22592;-70
2022/09/21 19:12:52;;;;;;;4.00;3.30;;;;;;;10.54;87.09;101027.08;87405;1275;25390;-71
2022/09/21 19:15:10;;;;;;;5.20;3.20;;;;;;;10.54;86.88;101026.38;87389;1275;22458;-71
2022/09/21 19:17:31;;;;;;;4.20;3.20;;;;;;;10.54;87.12;101027.42;87405;1285;22454;-70
2022/09/21 19:20:39;;;;;;;;;;;;;;;;;;;;;
2022/09/21 19:24:06;;;;;;;4.30;3.60;;;;;;;10.54;87.29;101023.95;87414;1304;22479;-70
2022/09/21 19:26:27;;;;;;;3.70;3.10;;;;;;;10.55;87.39;101022.86;87200;1304;22592;-72
2022/09/21 19:28:50;;;;;;;4.90;3.80;;;;;;;10.55;87.42;101027.58;87295;1296;22473;-72
2022/09/21 19:31:05;;;;;;;5.00;3.80;;;;;;;10.56;87.30;101027.21;87253;1280;22476;-72
2022/09/21 19:33:31;;;;;;;3.60;3.20;;;;;;;10.56;87.24;101022.65;87289;1277;22489;-72
2022/09/21 19:35:41;;;;;;;5.90;3.20;;;;;;;10.56;87.47;101023.89;87247;1304;24289;-68
2022/09/21 19:37:52;;;;;;;5.70;3.60;;;;;;;10.58;87.55;101024.52;87237;1304;22463;-70
2022/09/21 19:40:01;;;;;;;5.60;3.00;;;;;;;10.57;87.48;101021.25;87231;1298;22470;-70
2022/09/21 19:42:24;;;;;;;5.10;3.50;;;;;;;10.56;87.37;101021.96;87241;1279;22465;-70
2022/09/21 19:44:57;;;;;;;4.90;3.50;;;;;;;10.52;87.48;101021.73;87226;1304;22645;-70
2022/09/21 19:47:13;;;;;;;4.50;3.50;;;;;;;10.50;87.82;101022.14;87219;1303;22705;-71
2022/09/21 19:49:28;;;;;;;4.40;3.70;;;;;;;10.50;87.77;101018.48;87241;1279;22410;-70
2022/09/21 19:51:41;;;;;;;4.50;3.40;;;;;;;10.50;87.99;101020.05;87273;1289;22449;-70
2022/09/21 20:01:18;;;;;;;6.80;3.50;;;;;;;10.49;87.96;101024.08;87256;1293;25445;-70
2022/09/21 20:03:33;;;;;;;4.60;3.10;;;;;;;10.48;88.11;101026.89;87457;1280;22475;-68
2022/09/21 20:05:49;;;;;;;3.60;3.30;;;;;;;10.48;88.18;101023.73;87418;1284;22920;-68
2022/09/21 20:08:00;;;;;;;5.60;3.30;;;;;;;10.47;88.21;101023.42;87478;1282;22578;-73
2022/09/21 20:10:40;;;;;;;5.10;3.40;;;;;;;10.47;88.24;101022.90;87448;1281;23757;-70
2022/09/21 20:12:53;;;;;;;3.40;2.90;;;;;;;10.47;88.20;101018.56;87486;1297;22563;-71
2022/09/21 20:15:07;;;;;;;4.70;3.60;;;;;;;10.43;88.29;101021.11;87426;1299;23832;-71
2022/09/21 20:17:40;;;;;;;2.80;2.20;;;;;;;10.43;88.40;101023.91;87478;1282;22727;-67
2022/09/21 20:19:54;;;;;;;3.90;2.80;;;;;;;10.41;88.37;101025.89;87412;1277;22713;-71
2022/09/21 20:22:04;;;;;;;3.40;2.70;;;;;;;10.38;88.52;101028.03;87464;1275;22465;-68
2022/09/21 20:24:20;;;;;;;4.80;2.70;;;;;;;10.38;88.46;101029.42;87443;1300;22590;-68
2022/09/21 20:26:29;;;;;;;3.50;2.80;;;;;;;10.35;88.36;101027.08;87495;1288;22505;-70
2022/09/21 20:28:39;;;;;;;8.30;3.50;;;;;;;10.32;88.79;101025.06;87505;1277;22487;-70
2022/09/21 20:30:49;;;;;;;5.80;3.70;;;;;;;10.28;88.77;101023.60;87468;1296;22607;-71
2022/09/21 20:33:00;;;;;;;5.40;3.50;;;;;;;10.22;88.73;101020.94;87489;1286;22472;-73
2022/09/21 20:35:16;;;;;;;3.70;3.20;;;;;;;10.20;88.87;101026.91;87448;1284;22451;-70
2022/09/21 20:37:26;;;;;;;4.50;3.70;;;;;;;10.19;88.87;101027.99;87300;1303;22514;-70
2022/09/21 20:39:33;;;;;;;;;;;;;;;10.17;88.91;101025.94;87458;1300;24380;-70
2022/09/21 20:41:42;;;;;;;3.20;2.90;;;;;;;10.11;88.87;101031.16;87482;1300;22418;-69
2022/09/21 20:43:54;;;;;;;5.20;3.30;;;;;;;10.05;88.61;101032.17;87469;1283;23729;-69
2022/09/21 20:46:03;;;;;;;5.00;2.70;;;;;;;9.99;88.64;101028.14;87421;1294;22475;-69
2022/09/21 20:48:15;;;;;;;5.30;3.40;;;;;;;9.95;88.74;101031.23;87425;1276;22467;-69
2022/09/21 20:50:29;;;;;;;4.40;2.90;;;;;;;9.91;88.77;101028.70;87424;1284;25408;-72
2022/09/21 20:52:38;;;;;;;4.80;3.40;;;;;;;9.87;88.66;101028.63;87493;1277;22649;-69
2022/09/21 20:54:51;;;;;;;4.20;3.10;;;;;;;9.84;88.91;101023.81;87435;1285;22573;-68
2022/09/21 20:57:03;;;;;;;4.70;3.50;;;;;;;9.79;88.65;101025.15;87428;1288;24636;-69
2022/09/21 20:59:18;;;;;;;6.70;3.60;;;;;;;9.73;88.51;101027.40;87377;1283;25258;-68
2022/09/21 21:01:27;;;;;;;3.70;3.10;;;;;;;9.65;88.45;101028.10;87436;1283;22572;-70
2022/09/21 21:03:37;;;;;;;7.70;3.20;;;;;;;9.59;88.32;101026.70;87416;1295;22474;-69
2022/09/21 21:05:50;;;;;;;4.90;3.20;;;;;;;9.52;88.43;101023.52;87229;1278;25252;-69
2022/09/21 21:08:03;;;;;;;4.40;3.30;;;;;;;9.46;88.25;101022.44;87443;1300;24274;-71
2022/09/21 21:10:14;;;;;;;6.00;3.90;;;;;;;9.39;88.15;101020.88;87436;1284;22459;-70
2022/09/21 21:12:24;;;;;;;3.90;3.40;;;;;;;9.34;88.31;101020.80;87248;1285;25509;-72
2022/09/21 21:14:35;;;;;;;5.40;3.60;;;;;;;9.30;88.25;101021.59;87381;1295;22689;-71
2022/09/21 21:16:49;;;;;;;4.00;3.20;;;;;;;9.26;88.11;101026.05;87400;1302;22474;-70
2022/09/21 21:19:04;;;;;;;4.60;4.00;;;;;;;9.19;88.07;101025.33;87395;1302;24340;-70
2022/09/21 21:21:18;;;;;;;5.20;4.30;;;;;;;9.13;88.18;101022.30;87412;1303;22483;-71
2022/09/21 21:24:38;;;;;;;7.50;4.30;;;;;;;9.06;88.11;101020.72;87377;1280;23027;-69
2022/09/21 21:26:12;;;;;;;5.70;4.50;;;;;;;8.99;88.29;101021.22;87295;1300;22487;-70
2022/09/21 21:28:27;;;;;;;6.30;5.20;;;;;;;8.95;88.21;101018.52;87200;1274;22478;-71
2022/09/21 21:30:56;;;;;;;7.80;5.70;;;;;;;8.90;88.06;101016.02;87231;1304;22455;-69
2022/09/21 21:33:09;;;;;;;8.90;6.30;;;;;;;8.84;88.20;101019.10;87371;1303;23255;-70
2022/09/21 21:35:19;;;;;;;5.40;4.60;;;;;;;8.79;88.42;101018.84;87220;1303;24289;-70
2022/09/21 21:37:31;;;;;;;6.90;6.20;;;;;;;8.76;88.66;101014.90;87340;1289;22461;-69
2022/09/21 21:39:40;;;;;;;7.00;5.40;;;;;;;8.73;88.83;101017.91;87309;1285;25377;-69
2022/09/21 21:41:52;;;;;;;8.00;4.30;;;;;;;8.70;88.83;101017.46;87446;1303;22599;-73
2022/09/21 21:44:03;;;;;;;5.90;4.60;;;;;;;8.65;88.68;101024.52;87323;1280;24258;-73
2022/09/21 21:46:12;;;;;;;5.30;4.80;;;;;;;8.62;88.49;101025.80;87214;1284;22473;-69
2022/09/21 21:48:23;;;;;;;6.60;4.50;;;;;;;8.54;88.70;101026.63;87280;1288;22467;-68
2022/09/21 21:50:40;;;;;;;4.80;3.70;;;;;;;8.51;88.78;101030.17;87296;1291;23639;-68
2022/09/21 21:52:53;;;;;;;4.10;3.70;;;;;;;8.48;88.94;101032.84;87353;1301;22465;-70
2022/09/21 21:55:07;;;;;;;5.10;3.50;;;;;;;8.46;89.00;101031.66;87325;1303;24222;-72
2022/09/21 21:57:15;;;;;;;6.30;3.50;;;;;;;8.44;89.11;101030.16;87353;1278;22487;-69
2022/09/21 21:59:29;;;;;;;4.10;3.30;;;;;;;8.43;89.21;101031.20;87397;1279;22486;-68
2022/09/21 22:01:41;;;;;;;4.70;3.50;;;;;;;8.42;89.34;101032.45;87315;1303;22602;-68
2022/09/21 22:03:55;;;;;;;6.10;4.00;;;;;;;8.41;89.55;101032.27;87323;1280;22460;-68
2022/09/21 22:06:07;;;;;;;7.40;5.50;;;;;;;8.41;89.44;101030.88;87420;1298;25367;-67
2022/09/21 22:08:17;;;;;;;9.10;6.40;;;;;;;8.40;89.46;101028.30;87402;1278;22539;-67
2022/09/21 22:10:30;;;;;;;11.30;8.20;;;;;;;8.39;89.38;101028.50;87370;1286;22548;-68
2022/09/21 22:12:41;;;;;;;12.60;9.10;;;;;;;8.40;89.62;101024.14;87348;1285;22458;-68
2022/09/21 22:14:52;;;;;;;18.90;11.80;;;;;;;8.42;89.79;101024.10;87461;1276;22450;-68
2022/09/21 22:17:05;;;;;;;16.80;11.60;;;;;;;8.46;90.04;101024.20;87441;1292;25892;-70
2022/09/21 22:19:17;;;;;;;14.60;9.50;;;;;;;8.47;89.99;101023.64;87448;1300;22463;-70
2022/09/21 22:21:28;;;;;;;14.80;10.40;;;;;;;8.49;90.09;101024.66;87460;1300;22461;-70
2022/09/21 22:23:37;;;;;;;13.00;9.40;;;;;;;8.50;90.12;101026.02;87469;1300;22474;-70
2022/09/21 22:25:46;;;;;;;10.90;8.20;;;;;;;8.51;90.20;101027.58;87444;1285;25874;-71
2022/09/21 22:27:54;;;;;;;8.70;5.70;;;;;;;8.52;90.15;101021.47;87469;1288;22479;-69
2022/09/21 22:30:05;;;;;;;5.80;4.50;;;;;;;8.52;90.34;101022.34;87431;1300;24248;-70
2022/09/21 22:32:14;;;;;;;5.00;4.00;;;;;;;8.52;90.61;101025.11;87489;1280;22484;-72
2022/09/21 22:34:23;;;;;;;4.10;3.40;;;;;;;8.52;90.83;101027.02;87432;1284;22435;-72
2022/09/21 22:36:35;;;;;;;2.90;2.60;;;;;;;8.56;91.18;101028.35;87479;1285;22636;-70
2022/09/21 22:38:45;;;;;;;3.40;2.80;;;;;;;8.57;91.32;101028.67;87478;1300;22693;-70
2022/09/21 22:40:55;;;;;;;3.50;3.00;;;;;;;8.59;91.23;101027.42;87448;1285;22476;-69
2022/09/21 22:43:08;;;;;;;3.50;3.10;;;;;;;8.60;91.18;101027.58;87435;1288;22455;-69
2022/09/21 22:45:20;;;;;;;4.10;3.50;;;;;;;8.62;91.42;101029.45;87449;1300;22474;-68
2022/09/21 22:47:29;;;;;;;3.60;3.30;;;;;;;8.64;91.46;101029.25;87448;1300;22450;-68
2022/09/21 22:49:40;;;;;;;4.70;3.90;;;;;;;8.63;91.29;101030.66;87438;1282;22510;-68
2022/09/21 22:51:50;;;;;;;4.10;3.80;;;;;;;8.61;90.99;101030.51;87464;1280;24014;-70
2022/09/21 22:54:00;;;;;;;4.40;3.70;;;;;;;8.59;90.97;101028.13;87437;1282;26120;-68
2022/09/21 22:56:13;;;;;;;4.40;3.80;;;;;;;8.57;91.10;101029.55;87448;1300;22863;-68
2022/09/21 22:58:23;;;;;;;6.60;4.10;;;;;;;8.55;90.84;101026.98;87500;1283;24008;-70
2022/09/21 23:00:32;;;;;;;4.80;3.60;;;;;;;8.50;90.80;101029.51;87473;1284;24375;-68
2022/09/21 23:02:43;;;;;;;3.40;3.10;;;;;;;8.48;90.86;101026.08;87443;1300;24271;-68
2022/09/21 23:04:54;;;;;;;7.00;3.00;;;;;;;8.47;90.92;101027.80;87467;1300;22472;-70
2022/09/21 23:07:03;;;;;;;5.60;3.50;;;;;;;8.45;90.89;101028.55;87491;1280;22470;-70
2022/09/21 23:09:15;;;;;;;5.70;3.70;;;;;;;8.40;90.50;101025.35;87419;1298;22459;-70
2022/09/21 23:11:29;;;;;;;5.00;2.90;;;;;;;8.35;90.63;101027.85;87465;1288;22458;-72
2022/09/21 23:13:39;;;;;;;3.00;2.70;;;;;;;8.32;90.59;101026.69;87443;1279;23726;-68
2022/09/21 23:15:50;;;;;;;3.70;2.70;;;;;;;8.27;90.68;101026.08;87438;1292;22479;-67
2022/09/21 23:18:03;;;;;;;4.30;2.80;;;;;;;8.24;90.43;101028.04;87461;1295;22474;-68
2022/09/21 23:20:16;;;;;;;3.80;3.20;;;;;;;8.18;90.48;101027.79;87430;1288;22722;-68
2022/09/21 23:22:26;;;;;;;2.60;2.40;;;;;;;8.16;90.53;101031.84;87467;1294;22917;-68
2022/09/21 23:24:35;;;;;;;2.70;2.10;;;;;;;8.13;90.71;101028.41;87431;1286;22547;-68
2022/09/21 23:26:44;;;;;;;4.70;3.00;;;;;;;8.10;90.67;101026.89;87421;1301;22743;-70
2022/09/21 23:28:59;;;;;;;4.30;2.80;;;;;;;8.03;90.47;101023.54;87435;1289;22496;-70
2022/09/21 23:31:11;;;;;;;3.60;2.80;;;;;;;7.98;90.53;101021.89;87430;1301;22577;-70
2022/09/21 23:33:21;;;;;;;2.30;2.10;;;;;;;7.92;90.29;101023.37;87458;1282;22479;-71
2022/09/21 23:35:30;;;;;;;4.80;2.40;;;;;;;7.87;90.41;101028.33;87444;1282;22689;-70
2022/09/21 23:37:39;;;;;;;3.00;2.20;;;;;;;7.84;90.48;101026.64;87513;1277;22431;-70
2022/09/21 23:43:38;;;;;;;3.70;2.70;;;;;;;7.75;90.82;101030.78;87439;1285;22461;-70
2022/09/21 23:45:47;;;;;;;3.20;2.70;;;;;;;7.72;90.62;101029.09;87437;1287;22431;-70
2022/09/21 23:47:56;;;;;;;2.80;2.50;;;;;;;7.67;90.42;101031.95;87439;1285;22496;-72
2022/09/21 23:50:07;;;;;;;4.20;3.00;;;;;;;7.60;90.52;101027.52;87435;1300;22445;-70
2022/09/21 23:52:16;;;;;;;5.80;2.50;;;;;;;7.55;90.39;101028.13;87456;1301;22567;-70
2022/09/21 23:54:26;;;;;;;3.70;2.90;;;;;;;7.49;90.12;101029.95;87458;1288;22408;-70
2022/09/21 23:56:35;;;;;;;3.60;2.80;;;;;;;7.45;90.60;101023.59;87331;1285;23805;-70
2022/09/21 23:58:44;;;;;;;2.90;2.20;;;;;;;7.43;90.60;101025.20;87435;1299;22471;-71
